Flight Track Log - Related Links

Times and Time Zones

All times are in EDT time to prevent confusion due to time zone crossing. See the USC105 flight status page for this flight to view local times or setup timezone preferences in your user account.

Time Position Orientation Groundspeed Altitude Reporting Facility
EDT Latitude Longitude Course Direction KTS MPH feet Rate Location/Type
Mon 11:06:56 PM 41.5689 -81.6961 338° Northwest 137 158 2,800  Level Cleveland Center
Mon 11:07:57 PM 41.5872 -81.7436 297° West 150 173 3,700 893 Climbing Cleveland Center
Mon 11:08:57 PM 41.6097 -81.7883 304° West 151 174 4,600 694 Climbing Cleveland Center
Mon 11:09:58 PM 41.6236 -81.8442 288° West 166 191 5,100 626 Climbing Cleveland Center
Mon 11:10:52 PM 41.6397 -81.8917 294° West 154 177 5,800 574 Climbing Cleveland Center
Mon 11:11:53 PM 41.6539 -81.9447 290° West 156 180 6,200 492 Climbing Cleveland Center
Mon 11:12:54 PM 41.6697 -82.0036 290° West 155 178 6,800 595 Climbing Cleveland Center
Mon 11:13:54 PM 41.6878 -82.0539 296° West 156 180 7,400 545 Climbing Cleveland Center
Mon 11:14:55 PM 41.6975 -82.1069 284° West 158 182 7,900 298 Climbing Cleveland Center
Mon 11:15:55 PM 41.7133 -82.1742 288° West 187 215 8,000 50 Climbing Cleveland Center
Mon 11:16:56 PM 41.7394 -82.2417 297° West 191 220 8,000  Level Cleveland Center
Mon 11:17:57 PM 41.7594 -82.3061 293° West 182 209 8,000  Level Cleveland Center
Mon 11:18:28 PM 41.7694 -82.3344 295° West 182 209 8,000  Level Cleveland Center
Mon 11:19:29 PM 41.7850 -82.3961 289° West 183 211 8,000  Level Cleveland Center
Mon 11:20:30 PM 41.8050 -82.4606 293° West 183 211 8,000  Level Cleveland Center
Mon 11:21:30 PM 41.8247 -82.5281 291° West 182 209 8,000  Level Cleveland Center
Mon 11:22:31 PM 41.8381 -82.5897 286° West 180 207 8,000  Level Cleveland Center
Mon 11:23:32 PM 41.8600 -82.6575 294° West 188 216 8,000  Level Cleveland Center
Mon 11:24:32 PM 41.8944 -82.7086 312° West 189 217 8,000  Level Cleveland Center
Mon 11:25:33 PM 41.9225 -82.7656 304° West 186 214 8,000  Level Cleveland Center
Mon 11:26:34 PM 41.9528 -82.8225 306° West 186 214 8,000  Level Cleveland Center
Mon 11:27:40 PM 41.9911 -82.8825 311° West 189 217 8,000 -236 Level Cleveland Center
Mon 11:28:41 PM 42.0189 -82.9450 301° West 190 219 7,500 -590 Descending Cleveland Center
Mon 11:29:42 PM 42.0575 -83.0050 311° West 215 247 6,800 -694 Descending Cleveland Center
Mon 11:30:42 PM 42.0958 -83.0625 312° West 210 242 6,100 -595 Descending Cleveland Center
Mon 11:31:43 PM 42.1297 -83.1283 305° West 206 237 5,600 -462 Descending Cleveland Center
Mon 11:32:00 PM 42.1389 -83.1419 312° West 203 234 5,500 -486 Descending FAA TRACON SMA TRACON (SMA)
Mon 11:32:20 PM 42.1500 -83.1594 311° West 201 231 5,300 -750 Descending FAA TRACON SMA TRACON (SMA)
Mon 11:32:40 PM 42.1636 -83.1825 309° West 203 234 5,000 -450 Descending FAA TRACON SMA TRACON (SMA)
Mon 11:33:00 PM 42.1739 -83.2011 307° West 202 232 5,000  Level FAA TRACON SMA TRACON (SMA)
Mon 11:33:21 PM 42.1856 -83.2236 305° West 192 221 5,000  Level FAA TRACON SMA TRACON (SMA)
Mon 11:33:40 PM 42.1953 -83.2406 308° West 189 217 5,000  Level FAA TRACON SMA TRACON (SMA)
Mon 11:34:00 PM 42.2047 -83.2572 307° West 185 213 5,000  Level FAA TRACON SMA TRACON (SMA)
Mon 11:34:20 PM 42.2164 -83.2767 309° West 177 204 5,000  Level FAA TRACON SMA TRACON (SMA)
Mon 11:34:40 PM 42.2247 -83.2917 307° West 173 199 5,000  Level FAA TRACON SMA TRACON (SMA)
Mon 11:35:01 PM 42.2344 -83.3111 304° West 169 194 5,000  Level FAA TRACON SMA TRACON (SMA)
Mon 11:35:20 PM 42.2422 -83.3264 305° West 166 191 5,000 -308 Level FAA TRACON SMA TRACON (SMA)
Mon 11:35:40 PM 42.2514 -83.3442 305° West 168 193 4,800 -750 Descending FAA TRACON SMA TRACON (SMA)
Mon 11:36:00 PM 42.2603 -83.3650 300° West 181 208 4,500 -1,200 Descending FAA TRACON SMA TRACON (SMA)
Mon 11:36:20 PM 42.2661 -83.3844 292° West 191 220 4,000 -1,463 Descending FAA TRACON SMA TRACON (SMA)
Mon 11:36:41 PM 42.2706 -83.4061 286° West 191 220 3,500 -1,500 Descending FAA TRACON SMA TRACON (SMA)
Mon 11:37:00 PM 42.2758 -83.4333 285° West 194 223 3,000 -1,538 Descending FAA TRACON SMA TRACON (SMA)
Mon 11:37:20 PM 42.2794 -83.4553 283° West 194 223 2,500 -900 Descending FAA TRACON SMA TRACON (SMA)
Mon 11:37:40 PM 42.2758 -83.4747 256° West 169 194 2,400 -1,050 Descending FAA TRACON SMA TRACON (SMA)
Mon 11:38:00 PM 42.2658 -83.4906 230° Southwest 134 154 1,800 -1,610 Descending FAA TRACON SMA TRACON (SMA)
Mon 11:38:21 PM 42.2578 -83.5017 226° Southwest 142 163 1,300 -1,200 Descending FAA TRACON SMA TRACON (SMA)
Mon 11:38:40 PM 42.2500 -83.5122 225° Southwest 124 143 1,000 -769 Descending FAA TRACON SMA TRACON (SMA)
Mon 11:39:00 PM 42.2467 -83.5169 226° Southwest 105 121 800 -300 Descending FAA TRACON SMA TRACON (SMA)
Mon 11:39:20 PM 42.2467 -83.5169 225° Southwest 105 121 800  Level FAA TRACON SMA TRACON (SMA)

Login

Don't have an account? Register now (free) for customized features, flight alerts, and more!